Hauptseite
METAR-TAF:

METAR-TAF

Flughäfen :

Niederstetten, Deutschland

Heeresflugplatz Niederstetten

Breite: 49-24N, Länge: 009-58E, Höhe: 468 m

Beobachtung

Neuester Wetterbericht von vor 47 Minuten, um 10:20 UTC
Wind 11 kt aus Süd/Südwest
Temperatur 10°C
Luftfeuchtigkeit 57%
Luftdruck 1007 hPa
Sichtweite 10 km oder mehr
Leicht bewölkt in der Höhe von 3500 ft

METAR: ETHN 271020Z 20011KT 9999 FEW035 10/02 Q1007 BLU+BLU TEMPO BLU+

Zeit: 12:07 (11:07 UTC)

Prognose

Neuester Wetterbericht von vor 2 Stunden und 54 Minuten, um 08:13 UTC
Gültige Prognose vom 27 um 09 UTC bis 27 um 18 UTC
Wind 8 kt aus Süd
Sichtweite 10 km oder mehr
Durchbrochene Bewölkung in der Höhe von 3000 ft
Zeitweise
vom 27 um 09 UTC bis 27 um 18 UTC
Wind 12 kt aus Südwest
Sichtweite 10 km oder mehr
Leicht bewölkt in der Höhe von 3000 ft

TAF: ETHN 270813Z 2709/2718 18008KT 9999 NSW BKN030 TEMPO 2709/2718 22012KT 9999 NSW FEW030

Wetterbeobachtungen und Prognosen von mehr als 4000 Flughäfen (METAR und TAF Bericht).

Die verfügbaren Stationen werden durch gelbe und rote Markierungen auf der Karte dargestellt.

Führen Sie die Maus auf sie, um den Namen der Station zu sehen.

Darauf klicken, um die Beobachtung von Wetterbeobachtungen und Prognosen zu sehen.

Um die Karte zu ändern : klicken Sie auf den grünen Tasten mit einem schwarzen Kreuz Zum Vergrößern, auf den grünen Button mit einem Gedankenstrich zu verkleinern, oder auf die grünen Pfeile für benachbarte Karten.


METAR-TAF: